createdAt,value
2019-02-21T00:00:24.179Z,1.93
2019-02-21T00:03:04.021Z,1.90
2019-02-21T00:05:44.335Z,1.47
2019-02-21T00:08:27.707Z,1.53
2019-02-21T00:11:07.010Z,1.30
2019-02-21T00:14:04.559Z,1.40
2019-02-21T00:17:10.373Z,1.47
2019-02-21T00:19:58.506Z,1.50
2019-02-21T00:22:48.568Z,1.30
2019-02-21T00:25:41.277Z,1.30
2019-02-21T00:28:20.187Z,1.20
2019-02-21T00:31:08.107Z,1.53
2019-02-21T00:33:49.197Z,1.30
2019-02-21T00:36:34.755Z,1.17
2019-02-21T00:39:22.864Z,1.30
2019-02-21T00:41:54.050Z,1.30
2019-02-21T00:44:45.293Z,1.20
2019-02-21T00:47:34.596Z,1.40
2019-02-21T00:50:05.686Z,1.40
2019-02-21T00:52:36.770Z,1.20
2019-02-21T00:55:10.240Z,1.20
2019-02-21T00:57:44.224Z,1.30
2019-02-21T01:00:16.346Z,1.20
2019-02-21T01:02:48.811Z,1.20
2019-02-21T01:05:19.970Z,1.20
2019-02-21T01:07:54.556Z,1.20
2019-02-21T01:10:28.277Z,1.43
2019-02-21T01:12:59.568Z,1.30
2019-02-21T01:15:31.019Z,1.40
2019-02-21T01:18:06.891Z,1.37
2019-02-21T01:20:40.723Z,1.13
2019-02-21T01:23:11.707Z,1.27
2019-02-21T01:25:42.994Z,1.37
2019-02-21T01:28:13.674Z,1.27
2019-02-21T01:30:56.603Z,1.17
2019-02-21T01:33:23.293Z,1.30
2019-02-21T01:35:56.214Z,1.17
2019-02-21T01:38:27.213Z,1.30
2019-02-21T01:40:59.458Z,1.70
2019-02-21T01:43:32.724Z,1.50
2019-02-21T01:46:04.330Z,1.20
2019-02-21T01:48:38.318Z,1.40
2019-02-21T01:51:15.452Z,1.53
2019-02-21T01:53:46.675Z,1.40
2019-02-21T01:56:18.068Z,1.43
2019-02-21T01:58:53.983Z,1.43
2019-02-21T02:01:36.456Z,1.10
2019-02-21T02:04:16.385Z,1.33
2019-02-21T02:06:55.503Z,1.20
2019-02-21T02:09:28.287Z,1.30
2019-02-21T02:12:23.101Z,1.50
2019-02-21T02:14:54.489Z,1.33
2019-02-21T02:17:36.580Z,1.10
2019-02-21T02:20:12.552Z,1.50
2019-02-21T02:22:50.991Z,1.50
2019-02-21T02:25:26.482Z,1.47
2019-02-21T02:28:10.867Z,1.50
2019-02-21T02:30:44.262Z,2.10
2019-02-21T02:33:24.172Z,1.53
2019-02-21T02:35:59.431Z,1.37
2019-02-21T02:38:30.851Z,1.97
2019-02-21T02:41:05.409Z,1.70
2019-02-21T02:43:41.155Z,1.60
2019-02-21T02:46:12.230Z,1.70
2019-02-21T02:48:45.659Z,1.67
2019-02-21T02:51:18.925Z,1.30
2019-02-21T02:53:53.234Z,1.50
2019-02-21T02:56:24.494Z,1.60
2019-02-21T02:58:55.329Z,1.83
2019-02-21T03:01:34.713Z,1.77
2019-02-21T03:04:08.277Z,1.50
2019-02-21T03:06:35.529Z,1.40
2019-02-21T03:09:09.911Z,1.60
2019-02-21T03:11:45.218Z,1.43
2019-02-21T03:14:16.353Z,1.43
2019-02-21T03:16:47.519Z,1.30
2019-02-21T03:19:18.693Z,1.30
2019-02-21T03:21:49.420Z,1.40
2019-02-21T03:24:23.925Z,1.37
2019-02-21T03:26:56.506Z,1.30
2019-02-21T03:29:27.863Z,1.40
2019-02-21T03:32:01.012Z,1.50
2019-02-21T03:34:38.905Z,1.40
2019-02-21T03:37:12.541Z,1.10
2019-02-21T03:39:48.226Z,1.50
2019-02-21T03:42:24.261Z,1.50
2019-02-21T03:44:55.242Z,1.10
2019-02-21T03:47:30.050Z,1.10
2019-02-21T03:50:06.265Z,1.40
2019-02-21T03:52:37.826Z,1.53
2019-02-21T03:55:09.472Z,1.20
2019-02-21T03:57:40.620Z,1.40
2019-02-21T04:00:18.943Z,1.47
2019-02-21T04:02:49.786Z,1.00
2019-02-21T04:05:31.207Z,1.60
2019-02-21T04:08:02.050Z,1.43
2019-02-21T04:10:32.774Z,1.50
2019-02-21T04:13:05.712Z,1.20
2019-02-21T04:15:36.740Z,1.30
2019-02-21T04:18:09.194Z,1.37
2019-02-21T04:20:39.870Z,1.40
2019-02-21T04:23:15.784Z,1.43
2019-02-21T04:25:46.712Z,1.20
2019-02-21T04:28:17.793Z,1.20
2019-02-21T04:30:48.420Z,1.10
2019-02-21T04:33:24.582Z,1.07
2019-02-21T04:36:11.426Z,1.10
2019-02-21T04:38:43.035Z,2.10
2019-02-21T04:41:13.755Z,1.63
2019-02-21T04:43:51.993Z,1.30
2019-02-21T04:46:25.614Z,1.37
2019-02-21T04:49:02.964Z,1.20
2019-02-21T04:51:37.394Z,1.40
2019-02-21T04:54:08.160Z,1.30
2019-02-21T04:56:39.410Z,1.30
2019-02-21T04:59:10.190Z,1.30
2019-02-21T05:01:41.434Z,1.30
2019-02-21T05:04:12.332Z,1.33
2019-02-21T05:06:45.775Z,1.80
2019-02-21T05:09:19.260Z,1.67
2019-02-21T05:11:52.063Z,1.47
2019-02-21T05:14:22.807Z,1.30
2019-02-21T05:16:54.070Z,1.30
2019-02-21T05:19:24.948Z,1.67
2019-02-21T05:22:05.434Z,1.60
2019-02-21T05:24:36.488Z,1.47
2019-02-21T05:27:29.652Z,1.20
2019-02-21T05:30:18.871Z,1.30
2019-02-21T05:33:04.790Z,1.53
2019-02-21T05:35:57.874Z,1.60
2019-02-21T05:39:07.478Z,1.50
2019-02-21T05:42:19.298Z,1.40
2019-02-21T05:45:17.150Z,1.50
2019-02-21T05:48:16.368Z,1.70
2019-02-21T05:51:26.803Z,1.30
2019-02-21T05:54:03.514Z,1.57
2019-02-21T05:57:11.735Z,1.50
2019-02-21T06:00:04.114Z,1.57
2019-02-21T06:06:33.821Z,1.70
2019-02-21T06:09:20.201Z,1.70
2019-02-21T06:12:16.794Z,1.70
2019-02-21T06:15:18.296Z,1.53
2019-02-21T06:18:13.483Z,1.30
2019-02-21T06:20:59.710Z,1.40
2019-02-21T06:23:58.982Z,1.33
2019-02-21T06:27:23.534Z,1.50
2019-02-21T06:30:02.351Z,1.60
2019-02-21T06:32:40.779Z,1.50
2019-02-21T06:35:15.072Z,1.40
2019-02-21T06:37:46.846Z,1.40
2019-02-21T06:40:18.595Z,1.43
2019-02-21T06:42:50.930Z,1.30
2019-02-21T06:45:24.646Z,1.53
2019-02-21T06:47:55.549Z,1.43
2019-02-21T06:50:27.306Z,1.17
2019-02-21T06:52:58.111Z,1.20
2019-02-21T06:55:29.245Z,1.30
2019-02-21T06:57:59.938Z,1.60
2019-02-21T07:00:30.716Z,1.70
2019-02-21T07:03:01.626Z,1.57
2019-02-21T07:05:32.796Z,1.43
2019-02-21T07:08:04.523Z,1.50
2019-02-21T07:10:35.463Z,1.37
2019-02-21T07:13:06.409Z,1.80
2019-02-21T07:15:36.912Z,1.40
2019-02-21T07:18:07.922Z,1.97
2019-02-21T07:20:39.813Z,1.57
2019-02-21T07:23:11.439Z,1.50
2019-02-21T07:25:50.740Z,1.27
2019-02-21T07:28:21.674Z,1.53
2019-02-21T07:30:52.954Z,1.40
2019-02-21T07:33:28.260Z,1.30
2019-02-21T07:35:56.434Z,1.63
2019-02-21T07:38:27.232Z,2.10
2019-02-21T07:40:57.838Z,1.47
2019-02-21T07:43:28.943Z,1.67
2019-02-21T07:45:59.701Z,1.60
2019-02-21T07:48:30.515Z,1.50
2019-02-21T07:51:01.446Z,1.07
2019-02-21T07:53:32.432Z,1.30
2019-02-21T07:56:03.209Z,1.30
2019-02-21T07:58:33.774Z,1.33
2019-02-21T08:01:04.802Z,1.40
2019-02-21T08:03:43.839Z,1.20
2019-02-21T08:06:08.299Z,1.77
2019-02-21T08:08:39.025Z,1.23
2019-02-21T08:11:10.582Z,1.50
2019-02-21T08:13:41.278Z,1.37
2019-02-21T08:16:12.633Z,1.57
2019-02-21T08:18:43.318Z,1.30
2019-02-21T08:21:14.338Z,1.40
2019-02-21T08:23:50.519Z,0.90
2019-02-21T08:26:17.030Z,1.30
2019-02-21T08:28:48.302Z,0.90
2019-02-21T08:31:18.923Z,1.20
2019-02-21T08:34:06.662Z,1.27
2019-02-21T08:36:37.498Z,0.97
2019-02-21T08:39:10.977Z,1.10
2019-02-21T08:41:41.524Z,1.13
2019-02-21T08:44:12.791Z,0.93
2019-02-21T08:46:43.611Z,1.00
2019-02-21T08:49:15.176Z,1.07
2019-02-21T08:51:46.216Z,0.70
2019-02-21T08:54:16.982Z,1.10
2019-02-21T08:56:48.084Z,0.77
2019-02-21T08:59:19.234Z,1.00
2019-02-21T09:01:49.801Z,1.20
2019-02-21T09:04:27.352Z,1.00
2019-02-21T09:06:53.166Z,1.00
2019-02-21T09:09:24.147Z,1.23
2019-02-21T09:11:54.951Z,1.00
2019-02-21T09:14:26.782Z,0.77
2019-02-21T09:16:57.668Z,1.00
2019-02-21T09:19:30.536Z,1.10
2019-02-21T09:22:02.254Z,1.03
2019-02-21T09:24:39.972Z,0.97
2019-02-21T09:27:05.962Z,0.90
2019-02-21T09:29:36.624Z,0.83
2019-02-21T09:32:07.396Z,1.27
2019-02-21T09:34:38.130Z,1.00
2019-02-21T09:37:08.930Z,0.90
2019-02-21T09:39:39.866Z,1.13
2019-02-21T09:42:10.875Z,1.00
2019-02-21T09:44:41.653Z,1.17
2019-02-21T09:47:12.511Z,1.00
2019-02-21T09:49:43.470Z,0.80
2019-02-21T09:52:14.490Z,0.80
2019-02-21T09:54:47.353Z,0.87
2019-02-21T09:57:17.436Z,0.80
2019-02-21T09:59:48.102Z,0.80
2019-02-21T10:02:18.666Z,0.90
2019-02-21T10:04:49.174Z,0.70
2019-02-21T10:07:19.962Z,0.93
2019-02-21T10:09:51.078Z,1.13
2019-02-21T10:12:21.838Z,0.83
2019-02-21T10:14:52.350Z,0.90
2019-02-21T10:17:23.185Z,0.90
2019-02-21T10:19:54.380Z,1.10
2019-02-21T10:22:26.085Z,1.10
2019-02-21T10:24:57.536Z,0.90
2019-02-21T10:27:31.267Z,1.10
2019-02-21T10:30:02.158Z,0.80
2019-02-21T10:32:33.550Z,0.87
2019-02-21T10:35:04.311Z,0.83
2019-02-21T10:37:35.187Z,1.00
2019-02-21T10:40:06.255Z,0.90
2019-02-21T10:42:37.066Z,1.10
2019-02-21T10:45:10.323Z,1.03
2019-02-21T10:47:41.056Z,1.17
2019-02-21T10:50:14.476Z,1.00
2019-02-21T10:52:45.039Z,0.90
2019-02-21T10:55:16.297Z,1.10
2019-02-21T10:57:47.306Z,1.13
2019-02-21T11:00:20.419Z,0.90
2019-02-21T11:02:51.134Z,0.90
2019-02-21T11:05:21.891Z,0.80
2019-02-21T11:07:52.907Z,1.10
2019-02-21T11:10:25.450Z,1.00
2019-02-21T11:12:56.101Z,0.80
2019-02-21T11:15:29.675Z,1.10
2019-02-21T11:18:00.867Z,0.93
2019-02-21T11:20:31.737Z,1.10
2019-02-21T11:23:02.872Z,1.00
2019-02-21T11:25:33.608Z,1.13
2019-02-21T11:28:04.251Z,0.80
2019-02-21T11:30:34.836Z,0.80
2019-02-21T11:33:05.487Z,1.07
2019-02-21T11:35:36.337Z,0.80
2019-02-21T11:38:06.884Z,1.23
2019-02-21T11:40:37.702Z,0.83
2019-02-21T11:43:08.227Z,1.03
2019-02-21T11:45:38.998Z,0.90
2019-02-21T11:48:10.050Z,0.80
2019-02-21T11:50:41.158Z,0.70
2019-02-21T11:53:11.899Z,0.70
2019-02-21T11:55:42.950Z,0.70
2019-02-21T11:58:13.554Z,0.80
2019-02-21T12:00:44.516Z,1.00
2019-02-21T12:03:17.087Z,0.90
2019-02-21T12:05:47.627Z,0.80
2019-02-21T12:08:18.434Z,0.97
2019-02-21T12:10:50.884Z,0.83
2019-02-21T12:13:21.283Z,0.90
2019-02-21T12:15:52.492Z,0.80
2019-02-21T12:18:23.203Z,0.60
2019-02-21T12:20:53.919Z,0.73
2019-02-21T12:23:24.594Z,0.70
2019-02-21T12:25:56.295Z,0.80
2019-02-21T12:28:26.992Z,1.00
2019-02-21T12:30:57.639Z,0.70
2019-02-21T12:33:28.199Z,0.80
2019-02-21T12:35:59.643Z,0.60
2019-02-21T12:38:30.174Z,1.07
2019-02-21T12:41:02.361Z,0.80
2019-02-21T12:43:33.552Z,0.80
2019-02-21T12:46:04.450Z,0.90
2019-02-21T12:48:36.432Z,0.80
2019-02-21T12:51:07.289Z,0.87
2019-02-21T12:53:37.890Z,0.80
2019-02-21T12:56:08.759Z,1.10
2019-02-21T12:58:39.488Z,1.20
2019-02-21T13:01:10.134Z,0.90
2019-02-21T13:03:41.821Z,0.97
2019-02-21T13:06:12.323Z,1.00
2019-02-21T13:08:43.026Z,1.03
2019-02-21T13:11:13.750Z,1.03
2019-02-21T13:13:44.831Z,0.90
2019-02-21T13:16:16.113Z,0.83
2019-02-21T13:18:46.656Z,1.20
2019-02-21T13:21:17.423Z,1.00
2019-02-21T13:23:50.015Z,0.80
2019-02-21T13:26:21.166Z,0.70
2019-02-21T13:28:51.794Z,0.80
2019-02-21T13:31:22.871Z,0.90
2019-02-21T13:33:53.566Z,0.70
2019-02-21T13:36:24.510Z,0.73
2019-02-21T13:38:55.224Z,0.70
2019-02-21T13:41:26.242Z,0.67
2019-02-21T13:43:56.722Z,0.90
2019-02-21T13:46:36.976Z,0.70
2019-02-21T13:49:01.850Z,0.53
2019-02-21T13:51:33.453Z,0.80
2019-02-21T13:54:04.181Z,0.90
2019-02-21T13:56:35.078Z,1.00
2019-02-21T13:59:05.872Z,1.43
2019-02-21T14:01:38.756Z,0.87
2019-02-21T14:04:09.327Z,0.80
2019-02-21T14:06:40.091Z,0.60
2019-02-21T14:09:11.202Z,0.90
2019-02-21T14:11:45.820Z,0.90
2019-02-21T14:14:16.490Z,0.90
2019-02-21T14:16:47.267Z,0.80
2019-02-21T14:19:19.808Z,0.83
2019-02-21T14:21:50.619Z,1.10
2019-02-21T14:24:23.003Z,0.77
2019-02-21T14:26:53.560Z,1.10
2019-02-21T14:29:24.501Z,1.00
2019-02-21T14:31:56.230Z,0.93
2019-02-21T14:34:27.430Z,0.80
2019-02-21T14:37:01.033Z,0.90
2019-02-21T14:39:30.627Z,0.70
2019-02-21T14:42:04.352Z,1.00
2019-02-21T14:44:35.251Z,1.00
2019-02-21T14:47:08.103Z,1.00
2019-02-21T14:49:39.057Z,1.00
2019-02-21T14:52:10.302Z,0.83
2019-02-21T14:54:41.146Z,0.90
2019-02-21T14:57:15.301Z,1.07
2019-02-21T15:00:05.097Z,0.90
2019-02-21T15:02:36.939Z,0.60
2019-02-21T15:05:10.152Z,1.00
2019-02-21T15:07:40.918Z,1.10
2019-02-21T15:10:11.655Z,0.60
2019-02-21T15:12:42.503Z,0.80
2019-02-21T15:15:14.346Z,0.70
2019-02-21T15:17:45.254Z,0.67
2019-02-21T15:20:16.567Z,0.90
2019-02-21T15:22:47.424Z,0.90
2019-02-21T15:25:18.221Z,0.70
2019-02-21T15:27:48.966Z,0.60
2019-02-21T15:30:20.192Z,1.00
2019-02-21T15:32:51.074Z,0.90
2019-02-21T15:35:23.078Z,1.10
2019-02-21T15:37:53.846Z,1.00
2019-02-21T15:40:24.818Z,0.87
2019-02-21T15:42:55.522Z,0.80
2019-02-21T15:45:26.440Z,1.00
2019-02-21T15:47:57.466Z,0.97
2019-02-21T15:50:28.334Z,0.80
2019-02-21T15:52:59.541Z,0.80
2019-02-21T15:55:32.146Z,0.80
2019-02-21T15:58:04.511Z,0.90
2019-02-21T16:00:35.996Z,0.90
2019-02-21T16:03:07.006Z,0.90
2019-02-21T16:05:37.662Z,0.90
2019-02-21T16:08:08.726Z,1.20
2019-02-21T16:10:39.940Z,1.10
2019-02-21T16:13:10.895Z,0.90
2019-02-21T16:15:41.967Z,1.17
2019-02-21T16:18:14.004Z,0.83
2019-02-21T16:20:45.047Z,0.80
2019-02-21T16:23:15.748Z,1.03
2019-02-21T16:25:46.412Z,0.97
2019-02-21T16:28:17.141Z,1.20
2019-02-21T16:30:47.902Z,1.00
2019-02-21T16:33:18.425Z,0.90
2019-02-21T16:35:49.304Z,1.00
2019-02-21T16:38:20.116Z,0.93
2019-02-21T16:40:50.703Z,1.40
2019-02-21T16:43:21.359Z,1.30
2019-02-21T16:45:53.925Z,1.23
2019-02-21T16:48:24.667Z,1.40
2019-02-21T16:50:55.423Z,0.90
2019-02-21T16:53:26.597Z,1.13
2019-02-21T16:55:57.505Z,0.90
2019-02-21T16:58:28.134Z,1.10
2019-02-21T17:00:58.851Z,1.00
2019-02-21T17:03:31.128Z,0.90
2019-02-21T17:06:03.592Z,0.90
2019-02-21T17:08:34.871Z,0.97
2019-02-21T17:11:05.786Z,1.07
2019-02-21T17:13:36.704Z,1.17
2019-02-21T17:16:07.468Z,0.70
2019-02-21T17:18:38.174Z,0.80
2019-02-21T17:21:08.681Z,0.70
2019-02-21T17:23:39.534Z,1.00
2019-02-21T17:26:10.426Z,0.70
2019-02-21T17:28:41.108Z,0.80
2019-02-21T17:31:12.559Z,0.80
2019-02-21T17:33:43.154Z,0.90
2019-02-21T17:36:14.287Z,0.80
2019-02-21T17:38:48.049Z,0.80
2019-02-21T17:41:31.451Z,0.73
2019-02-21T17:44:02.469Z,0.70
2019-02-21T17:46:36.085Z,0.60
2019-02-21T17:49:17.812Z,0.90
2019-02-21T17:51:59.367Z,0.80
2019-02-21T17:54:33.832Z,0.80
2019-02-21T17:57:08.850Z,0.90
2019-02-21T17:59:57.280Z,0.97
2019-02-21T18:02:39.717Z,0.60
2019-02-21T18:05:11.490Z,0.70
2019-02-21T18:10:41.845Z,0.77
2019-02-21T18:13:13.039Z,0.70
2019-02-21T18:15:49.871Z,0.90
2019-02-21T18:18:20.805Z,0.97
2019-02-21T18:20:53.530Z,0.93
2019-02-21T18:23:32.056Z,0.90
2019-02-21T18:26:09.967Z,1.00
2019-02-21T18:28:42.767Z,0.90
2019-02-21T18:31:24.323Z,1.00
2019-02-21T18:34:03.514Z,0.90
2019-02-21T18:36:35.061Z,0.97
2019-02-21T18:39:08.510Z,1.00
2019-02-21T18:41:40.669Z,1.67
2019-02-21T18:44:11.666Z,1.10
2019-02-21T18:46:45.264Z,0.93
2019-02-21T18:49:19.975Z,1.10
2019-02-21T18:51:51.149Z,1.20
2019-02-21T18:54:22.078Z,1.20
2019-02-21T18:56:55.090Z,1.27
2019-02-21T18:59:31.792Z,0.93
2019-02-21T19:01:58.806Z,1.07
2019-02-21T19:04:29.709Z,1.17
2019-02-21T19:07:03.562Z,1.13
2019-02-21T19:09:34.646Z,1.10
2019-02-21T19:12:05.779Z,1.20
2019-02-21T19:14:36.557Z,0.93
2019-02-21T19:17:10.368Z,0.90
2019-02-21T19:19:42.794Z,0.97
2019-02-21T19:22:13.769Z,1.30
2019-02-21T19:24:44.626Z,1.03
2019-02-21T19:27:15.374Z,1.03
2019-02-21T19:29:46.266Z,1.10
2019-02-21T19:32:19.279Z,1.20
2019-02-21T19:34:49.877Z,1.00
2019-02-21T19:37:21.286Z,1.20
2019-02-21T19:39:52.224Z,1.10
2019-02-21T19:42:23.240Z,1.40
2019-02-21T19:44:56.961Z,1.20
2019-02-21T19:47:27.735Z,1.20
2019-02-21T19:50:00.047Z,1.50
2019-02-21T19:52:31.026Z,0.87
2019-02-21T19:55:02.333Z,1.50
2019-02-21T19:57:35.552Z,1.23
2019-02-21T20:00:11.544Z,1.30
2019-02-21T20:02:42.930Z,0.93
2019-02-21T20:05:15.616Z,1.17
2019-02-21T20:07:47.678Z,1.17
2019-02-21T20:10:21.207Z,1.30
2019-02-21T20:12:57.073Z,1.37
2019-02-21T20:15:28.343Z,1.40
2019-02-21T20:17:59.666Z,1.20
2019-02-21T20:20:30.641Z,1.40
2019-02-21T20:23:06.263Z,1.20
2019-02-21T20:25:37.534Z,1.20
2019-02-21T20:28:11.210Z,1.10
2019-02-21T20:30:44.774Z,1.17
2019-02-21T20:33:15.894Z,1.10
2019-02-21T20:35:46.764Z,1.03
2019-02-21T20:38:18.056Z,1.23
2019-02-21T20:40:49.055Z,1.03
2019-02-21T20:43:19.687Z,1.33
2019-02-21T20:45:53.616Z,1.20
2019-02-21T20:48:25.032Z,1.20
2019-02-21T20:51:01.533Z,1.40
2019-02-21T20:53:32.107Z,1.20
2019-02-21T20:56:06.097Z,1.10
2019-02-21T20:58:37.339Z,1.23
2019-02-21T21:01:08.576Z,1.10
2019-02-21T21:03:39.838Z,1.20
2019-02-21T21:06:11.076Z,1.20
2019-02-21T21:08:44.349Z,1.30
2019-02-21T21:11:18.073Z,1.13
2019-02-21T21:13:48.911Z,1.20
2019-02-21T21:16:20.282Z,1.10
2019-02-21T21:18:51.198Z,1.10
2019-02-21T21:21:21.834Z,1.10
2019-02-21T21:24:03.760Z,1.00
2019-02-21T21:26:34.608Z,1.20
2019-02-21T21:29:05.644Z,1.10
2019-02-21T21:31:36.555Z,1.10
2019-02-21T21:34:07.494Z,1.00
2019-02-21T21:36:38.466Z,1.10
2019-02-21T21:39:09.383Z,1.10
2019-02-21T21:41:42.085Z,1.33
2019-02-21T21:44:12.862Z,1.03
2019-02-21T21:46:43.636Z,1.00
2019-02-21T21:49:14.501Z,1.23
2019-02-21T21:51:46.546Z,1.13
2019-02-21T21:54:17.650Z,1.13
2019-02-21T21:56:48.259Z,1.40
2019-02-21T21:59:19.344Z,1.40
2019-02-21T22:01:50.326Z,0.80
2019-02-21T22:04:21.297Z,1.17
2019-02-21T22:06:52.156Z,0.90
2019-02-21T22:09:24.987Z,1.10
2019-02-21T22:11:55.384Z,1.00
2019-02-21T22:14:26.258Z,1.23
2019-02-21T22:16:57.078Z,1.10
2019-02-21T22:19:27.740Z,0.93
2019-02-21T22:21:58.663Z,1.40
2019-02-21T22:24:29.534Z,1.07
2019-02-21T22:27:00.322Z,1.40
2019-02-21T22:29:32.707Z,1.10
2019-02-21T22:32:03.763Z,1.30
2019-02-21T22:34:34.378Z,1.50
2019-02-21T22:37:05.066Z,1.10
2019-02-21T22:39:35.915Z,1.20
2019-02-21T22:42:06.919Z,1.33
2019-02-21T22:44:37.794Z,1.10
2019-02-21T22:47:08.592Z,1.10
2019-02-21T22:49:39.568Z,0.97
2019-02-21T22:52:11.524Z,1.20
2019-02-21T22:54:42.190Z,1.07
2019-02-21T22:57:13.019Z,1.03
2019-02-21T22:59:43.798Z,1.10
2019-02-21T23:02:14.652Z,1.30
2019-02-21T23:05:41.322Z,1.40
2019-02-21T23:08:47.861Z,0.97
2019-02-21T23:11:18.899Z,0.73
2019-02-21T23:13:49.748Z,0.83
2019-02-21T23:16:21.121Z,0.90
2019-02-21T23:18:51.718Z,1.17
2019-02-21T23:21:23.024Z,1.00
2019-02-21T23:23:53.735Z,1.10
2019-02-21T23:26:24.914Z,1.00
2019-02-21T23:28:56.003Z,1.20
2019-02-21T23:31:26.890Z,1.10
2019-02-21T23:33:58.914Z,1.30
2019-02-21T23:36:29.896Z,1.20
2019-02-21T23:39:00.681Z,1.00
2019-02-21T23:41:32.966Z,0.90
2019-02-21T23:44:03.888Z,0.87
2019-02-21T23:46:35.042Z,1.20
2019-02-21T23:49:05.861Z,1.50
2019-02-21T23:51:36.624Z,1.20
2019-02-21T23:54:07.552Z,1.10
2019-02-21T23:56:39.145Z,1.00
2019-02-21T23:59:09.741Z,1.27
